Pays
Station

 

Conditions  météo  pour  Batesville Automatic Weather Observing/Reporting System  -  Etats-Unis    Etats-Unis

  
2 °C
    
 
 

METAR pour Batesville Automatic Weather Observing/Reporting System :

KBVX 212156Z AUTO 10012KT 10SM CLR 02/M04 A3026 RMK AO2 SLP254 T00221044 FZRANO

 

Voici le bulletin pour Batesville Automatic Weather Observing/Reporting System - Etats-Unis.
 
Le bulletin a été fait il y a 35 minutes, à 21:56 UTC .
Le vent soufflait à la vitesse de 6.2 mètres par seconde de Est (100°).
 
La température était de 2 °C, avec un point de rosée à -4 °C.
La température ressentie était de -3 °C.
 
La pression atmosphérique était de 1025 hPa.
L'humidité relative était de 64.4%.
 
Le ciel était clair.
 
La visibilité globale était de 16.1 kilomètres.
 

 
 
 

Pays :   A   B   C   D   E   F   G   H   I   J   K   L   M   N   O   P   Q   R   S   T   U   V   W   Y   Z

 

Partenaires :  Info Météo avec Met'info
Météo Marine avec MeteoMarine.net
Infos Site  |  Infos Légales  |  Crédits  |  Confidentialité
Contactez-nous  |  Ajouter aux favoris
© 2013-2019 METAR - Tous droits réservés